ELY191 LLBG-UACC
Flight info
| Callsign | ELY191 |
|---|---|
| Flight time | N/A |
| Altitude | 40000 |
| Route | SUVAS L53 ANIDE DCT RIPLI DCT PEREN UN133 ATFIR DCT LOMOS DCT KENIN DCT KELEL/N0477F410 DCT LOGDA DCT VABER DCT LAUGA DCT IGORO/K0883F410 M864 INKEB L94 UNORO T788 NAMUD L994 DIDAL DIDAL1G |
| Aircraft | B772/H-SDE2E3FGHIJ1J4J5LM1OP2RVWXY/LB1D1 |
Departure
| Time | 2026-04-30 13:33 |
|---|---|
| Airport | Ben Gurion International Airport (LLBG) |
Arrival
| Time | N/A |
|---|---|
| Airport | Nursultan Nazarbayev International Airport (UACC) |
| Time | Latitude | Longitude | Altitude | Speed | Heading |
|---|---|---|---|---|---|
| 2026-04-30 13:00 | 32.00088 | 34.87456 | 121 ft | 0 kts | 351° |
| 2026-04-30 13:01 | 32.00086 | 34.87455 | 121 ft | 0 kts | 351° |
| 2026-04-30 13:19 | 32.00069 | 34.87458 | 125 ft | 4 kts | 349° |
| 2026-04-30 13:19 | 32.00042 | 34.87465 | 126 ft | 4 kts | 348° |
| 2026-04-30 13:20 | 32.00018 | 34.87469 | 120 ft | 1 kts | 355° |
| 2026-04-30 13:20 | 31.99995 | 34.87473 | 129 ft | 4 kts | 341° |
| 2026-04-30 13:20 | 31.99973 | 34.87488 | 123 ft | 4 kts | 305° |
| 2026-04-30 13:20 | 31.99959 | 34.87515 | 119 ft | 4 kts | 296° |
| 2026-04-30 13:21 | 31.99951 | 34.87543 | 123 ft | 4 kts | 268° |
| 2026-04-30 13:21 | 31.99959 | 34.87567 | 119 ft | 4 kts | 226° |
| 2026-04-30 13:21 | 31.99980 | 34.87587 | 128 ft | 4 kts | 210° |
| 2026-04-30 13:22 | 32.00000 | 34.87600 | 120 ft | 0 kts | 212° |
| 2026-04-30 13:26 | 31.99967 | 34.87532 | 121 ft | 17 kts | 278° |
| 2026-04-30 13:27 | 32.00152 | 34.87608 | 120 ft | 24 kts | 32° |
| 2026-04-30 13:28 | 32.00496 | 34.87853 | 120 ft | 19 kts | 32° |
| 2026-04-30 13:28 | 32.00635 | 34.87952 | 119 ft | 0 kts | 31° |
| 2026-04-30 13:29 | 32.00638 | 34.87955 | 124 ft | 4 kts | 31° |
| 2026-04-30 13:29 | 32.00881 | 34.88129 | 121 ft | 29 kts | 32° |
| 2026-04-30 13:30 | 32.01332 | 34.88482 | 122 ft | 22 kts | 42° |
| 2026-04-30 13:31 | 32.01482 | 34.88791 | 120 ft | 22 kts | 75° |
| 2026-04-30 13:31 | 32.01713 | 34.89131 | 118 ft | 22 kts | 317° |
| 2026-04-30 13:32 | 32.01726 | 34.88966 | 125 ft | 26 kts | 259° |
| 2026-04-30 13:32 | 32.01540 | 34.87732 | 124 ft | 121 kts | 258° |
| 2026-04-30 13:33 | 32.01186 | 34.85275 | 1144 ft | 166 kts | 260° |
| 2026-04-30 13:33 | 32.00632 | 34.82596 | 3240 ft | 171 kts | 257° |
| 2026-04-30 13:34 | 32.00336 | 34.81211 | 3832 ft | 183 kts | 257° |
| 2026-04-30 13:34 | 31.99201 | 34.75637 | 4767 ft | 265 kts | 264° |
| 2026-04-30 13:35 | 31.99498 | 34.73481 | 5402 ft | 272 kts | 292° |
| 2026-04-30 13:35 | 32.00898 | 34.69268 | 7140 ft | 277 kts | 289° |
| 2026-04-30 13:36 | 32.02192 | 34.64837 | 8490 ft | 294 kts | 283° |
| 2026-04-30 13:36 | 32.02723 | 34.62505 | 9446 ft | 295 kts | 282° |
| 2026-04-30 13:36 | 32.03770 | 34.57709 | 10768 ft | 322 kts | 282° |
| 2026-04-30 13:37 | 32.04348 | 34.55082 | 11392 ft | 337 kts | 282° |
| 2026-04-30 13:37 | 32.05560 | 34.49674 | 13370 ft | 344 kts | 283° |
| 2026-04-30 13:38 | 32.06801 | 34.44203 | 15442 ft | 349 kts | 283° |
| 2026-04-30 13:38 | 32.07429 | 34.41427 | 16412 ft | 352 kts | 284° |
| 2026-04-30 13:38 | 32.08704 | 34.35797 | 18280 ft | 358 kts | 284° |
| 2026-04-30 13:39 | 32.09997 | 34.30077 | 20083 ft | 364 kts | 284° |
| 2026-04-30 13:39 | 32.11306 | 34.24269 | 21848 ft | 369 kts | 284° |
| 2026-04-30 13:40 | 32.11966 | 34.21334 | 22705 ft | 371 kts | 284° |
| 2026-04-30 13:40 | 32.12631 | 34.18377 | 23507 ft | 374 kts | 284° |
| 2026-04-30 13:40 | 32.13300 | 34.15395 | 24297 ft | 378 kts | 284° |
| 2026-04-30 13:40 | 32.13973 | 34.12391 | 25055 ft | 381 kts | 284° |
| 2026-04-30 13:41 | 32.14650 | 34.09371 | 25752 ft | 381 kts | 284° |
| 2026-04-30 13:41 | 32.15330 | 34.06335 | 25996 ft | 385 kts | 284° |
| 2026-04-30 13:41 | 32.16006 | 34.03311 | 25988 ft | 386 kts | 284° |
| 2026-04-30 13:41 | 32.16752 | 34.00203 | 26480 ft | 390 kts | 287° |
| 2026-04-30 13:42 | 32.17724 | 33.97207 | 27216 ft | 393 kts | 293° |
| 2026-04-30 13:42 | 32.18924 | 33.94304 | 27920 ft | 395 kts | 294° |
| 2026-04-30 13:42 | 32.21372 | 33.88452 | 29084 ft | 401 kts | 294° |
| 2026-04-30 13:43 | 32.22606 | 33.85486 | 29623 ft | 404 kts | 294° |
| 2026-04-30 13:43 | 32.23845 | 33.82497 | 30129 ft | 407 kts | 294° |
| 2026-04-30 13:43 | 32.25094 | 33.79478 | 30596 ft | 410 kts | 294° |
| 2026-04-30 13:43 | 32.26348 | 33.76440 | 31087 ft | 413 kts | 294° |
| 2026-04-30 13:44 | 32.27606 | 33.73382 | 31523 ft | 415 kts | 294° |
| 2026-04-30 13:44 | 32.28876 | 33.70296 | 31906 ft | 419 kts | 294° |
| 2026-04-30 13:44 | 32.30156 | 33.67186 | 32312 ft | 422 kts | 294° |
| 2026-04-30 13:44 | 32.31442 | 33.64055 | 32687 ft | 425 kts | 294° |
| 2026-04-30 13:45 | 32.34035 | 33.57735 | 33425 ft | 429 kts | 294° |
| 2026-04-30 13:45 | 32.35343 | 33.54543 | 33704 ft | 433 kts | 294° |
| 2026-04-30 13:45 | 32.36660 | 33.51324 | 33974 ft | 436 kts | 294° |
| 2026-04-30 13:46 | 32.37985 | 33.48084 | 34314 ft | 437 kts | 294° |
| 2026-04-30 13:46 | 32.39306 | 33.44851 | 34743 ft | 437 kts | 293° |
| 2026-04-30 13:46 | 32.40625 | 33.41619 | 35188 ft | 435 kts | 293° |
| 2026-04-30 13:46 | 32.41937 | 33.38399 | 35638 ft | 433 kts | 293° |
| 2026-04-30 13:47 | 32.43246 | 33.35191 | 36056 ft | 432 kts | 293° |
| 2026-04-30 13:47 | 32.44551 | 33.31989 | 36418 ft | 432 kts | 293° |
| 2026-04-30 13:47 | 32.45856 | 33.28778 | 36746 ft | 432 kts | 293° |
| 2026-04-30 13:47 | 32.47153 | 33.25585 | 37220 ft | 428 kts | 293° |
| 2026-04-30 13:48 | 32.48432 | 33.22435 | 37883 ft | 421 kts | 292° |
| 2026-04-30 13:48 | 32.49697 | 33.19315 | 38251 ft | 420 kts | 292° |
| 2026-04-30 13:48 | 32.50962 | 33.16186 | 38440 ft | 423 kts | 292° |
| 2026-04-30 13:48 | 32.52234 | 33.13041 | 38648 ft | 424 kts | 292° |
| 2026-04-30 13:49 | 32.53509 | 33.09892 | 38936 ft | 424 kts | 292° |
| 2026-04-30 13:49 | 32.54783 | 33.06743 | 39214 ft | 424 kts | 292° |
| 2026-04-30 13:49 | 32.56057 | 33.03590 | 39419 ft | 425 kts | 292° |
| 2026-04-30 13:49 | 32.57318 | 33.00466 | 39624 ft | 426 kts | 292° |
| 2026-04-30 13:50 | 32.58608 | 32.97256 | 39849 ft | 426 kts | 292° |
| 2026-04-30 13:50 | 32.61162 | 32.90913 | 40271 ft | 427 kts | 292° |
| 2026-04-30 13:50 | 32.62440 | 32.87732 | 40536 ft | 426 kts | 292° |
| 2026-04-30 13:51 | 32.63697 | 32.84601 | 40741 ft | 426 kts | 292° |
| 2026-04-30 13:51 | 32.64973 | 32.81421 | 40907 ft | 428 kts | 292° |
| 2026-04-30 13:51 | 32.67540 | 32.75010 | 41000 ft | 431 kts | 292° |
| 2026-04-30 13:52 | 32.70099 | 32.68615 | 41011 ft | 427 kts | 292° |
| 2026-04-30 13:52 | 32.72636 | 32.62261 | 41014 ft | 425 kts | 292° |
| 2026-04-30 13:53 | 32.75159 | 32.55925 | 41014 ft | 424 kts | 292° |
| 2026-04-30 13:53 | 32.77680 | 32.49584 | 41026 ft | 425 kts | 292° |
| 2026-04-30 13:54 | 32.80203 | 32.43229 | 41025 ft | 426 kts | 292° |
| 2026-04-30 13:54 | 32.83074 | 32.37045 | 41009 ft | 430 kts | 301° |
| 2026-04-30 13:55 | 32.86502 | 32.31194 | 41006 ft | 431 kts | 301° |
| 2026-04-30 13:55 | 32.89925 | 32.25328 | 41009 ft | 432 kts | 301° |
| 2026-04-30 13:56 | 32.93338 | 32.19443 | 41011 ft | 432 kts | 301° |
| 2026-04-30 13:56 | 32.96744 | 32.13544 | 41031 ft | 432 kts | 301° |
| 2026-04-30 13:57 | 33.00146 | 32.07640 | 41030 ft | 432 kts | 301° |
| 2026-04-30 13:57 | 33.03526 | 32.01766 | 41030 ft | 433 kts | 301° |
| 2026-04-30 13:58 | 33.08622 | 31.92892 | 41015 ft | 432 kts | 301° |
| 2026-04-30 13:59 | 33.12011 | 31.86979 | 41032 ft | 432 kts | 301° |
| 2026-04-30 13:59 | 33.15397 | 31.81062 | 41032 ft | 431 kts | 301° |
| 2026-04-30 14:00 | 33.18777 | 31.75145 | 41031 ft | 431 kts | 301° |
| 2026-04-30 14:00 | 33.23841 | 31.66262 | 41029 ft | 432 kts | 301° |
| 2026-04-30 14:01 | 33.27219 | 31.60326 | 41029 ft | 432 kts | 301° |
| 2026-04-30 14:01 | 33.30595 | 31.54384 | 41031 ft | 432 kts | 301° |
| 2026-04-30 14:02 | 33.33967 | 31.48438 | 41028 ft | 432 kts | 300° |
| 2026-04-30 14:02 | 33.37339 | 31.42483 | 41028 ft | 432 kts | 300° |
| 2026-04-30 14:03 | 33.40707 | 31.36526 | 41031 ft | 432 kts | 300° |
| 2026-04-30 14:03 | 33.44070 | 31.30567 | 41033 ft | 432 kts | 300° |
| 2026-04-30 14:04 | 33.47431 | 31.24603 | 41028 ft | 432 kts | 300° |
| 2026-04-30 14:04 | 33.50790 | 31.18633 | 41031 ft | 432 kts | 300° |
| 2026-04-30 14:05 | 33.54144 | 31.12663 | 41033 ft | 432 kts | 300° |
| 2026-04-30 14:05 | 33.57492 | 31.06691 | 41017 ft | 432 kts | 300° |
| 2026-04-30 14:06 | 33.62483 | 30.97773 | 41016 ft | 431 kts | 300° |
| 2026-04-30 14:07 | 33.67488 | 30.88808 | 41017 ft | 431 kts | 300° |
| 2026-04-30 14:08 | 33.72482 | 30.79840 | 41012 ft | 430 kts | 300° |
| 2026-04-30 14:08 | 33.77464 | 30.70871 | 41010 ft | 430 kts | 300° |
| 2026-04-30 14:09 | 33.80781 | 30.64889 | 41008 ft | 430 kts | 300° |
| 2026-04-30 14:10 | 33.85746 | 30.55913 | 41011 ft | 429 kts | 300° |
| 2026-04-30 14:10 | 33.88492 | 30.50940 | 41009 ft | 429 kts | 300° |
| 2026-04-30 14:11 | 33.91793 | 30.44953 | 41011 ft | 429 kts | 300° |
| 2026-04-30 14:11 | 33.95093 | 30.38958 | 41010 ft | 429 kts | 300° |
| 2026-04-30 14:12 | 33.98389 | 30.32960 | 41011 ft | 430 kts | 300° |
| 2026-04-30 14:12 | 34.01687 | 30.26947 | 41013 ft | 430 kts | 300° |
| 2026-04-30 14:13 | 34.04981 | 30.20932 | 41008 ft | 430 kts | 300° |
| 2026-04-30 14:13 | 34.08273 | 30.14911 | 41008 ft | 430 kts | 300° |
| 2026-04-30 14:14 | 34.11561 | 30.08887 | 41011 ft | 430 kts | 300° |
| 2026-04-30 14:14 | 34.14847 | 30.02859 | 41009 ft | 430 kts | 300° |
| 2026-04-30 14:15 | 34.18432 | 29.97065 | 41013 ft | 433 kts | 307° |
| 2026-04-30 14:15 | 34.22390 | 29.91582 | 41009 ft | 433 kts | 307° |
| 2026-04-30 14:16 | 34.26342 | 29.86098 | 41029 ft | 433 kts | 307° |
| 2026-04-30 14:16 | 34.30285 | 29.80590 | 41029 ft | 433 kts | 307° |
| 2026-04-30 14:17 | 34.34217 | 29.75076 | 41014 ft | 433 kts | 307° |
| 2026-04-30 14:17 | 34.38142 | 29.69559 | 41015 ft | 432 kts | 307° |
| 2026-04-30 14:18 | 34.42060 | 29.64043 | 41016 ft | 432 kts | 307° |
| 2026-04-30 14:18 | 34.47939 | 29.55749 | 41030 ft | 433 kts | 307° |
| 2026-04-30 14:19 | 34.53820 | 29.47434 | 41028 ft | 433 kts | 307° |
| 2026-04-30 14:20 | 34.57711 | 29.41923 | 41030 ft | 433 kts | 307° |
| 2026-04-30 14:20 | 34.63582 | 29.33589 | 41008 ft | 433 kts | 307° |
| 2026-04-30 14:21 | 34.67491 | 29.28030 | 41014 ft | 433 kts | 307° |
| 2026-04-30 14:22 | 34.73352 | 29.19679 | 41008 ft | 433 kts | 307° |
| 2026-04-30 14:22 | 34.79206 | 29.11315 | 41006 ft | 433 kts | 307° |
| 2026-04-30 14:23 | 34.87002 | 29.00148 | 40993 ft | 433 kts | 307° |
| 2026-04-30 14:24 | 34.92839 | 28.91764 | 40990 ft | 432 kts | 307° |